ムンバイ の空港の天気 - METARとTAF

チャットラパティー・シヴァージー国際空港 ( VABB / BOM ) - インド ムンバイ
飛行場実況気象(Metar)
観測時間12/14 11:30 IST (12/14 06:00 UTC)
風向・風速東 5m/s
視程2500m
天気現象
なし
気温28℃
湿度32%
気圧1015hPa
METARVABB 140600Z 08009KT 2500 FU NSC 28/10 Q1015 NOSIG
過去の天気等 Google飛行場航空写真 Wunderground天気予報

過去48時間のMETAR

飛行場予報(TAF)
発表時間: 12/14 10:30 IST (12/14 05:00 UTC)
予報対象時間: 14日11時 IST ~ 15日17時 IST
風向・風速北北東 3m/s
視程3000m
天気現象
なし
14日14時 IST ~ 14日16時 IST に徐々に
風向・風速北西 4m/s
視程4000m
天気現象
14日21時 IST ~ 14日23時 IST に徐々に
風向・風速東 3m/s
視程3000m
天気現象
15日5時 IST ~ 15日7時 IST に徐々に
視程2000m
天気現象煙霧
15日9時 IST ~ 15日11時 IST に徐々に
視程3000m
天気現象
15日14時 IST ~ 15日16時 IST に徐々に
風向・風速北西 4m/s
視程4000m
天気現象
TAF VABB 140500Z 1406/1512 03006KT 3000 FU NSC
BECMG 1409/1411 32008KT 4000 FU
BECMG 1416/1418 09005KT 3000 FU
BECMG 1500/1502 2000 HZ
BECMG 1504/1506 3000 FU
BECMG 1509/1511 32008KT 4000 FU